sensor_id;sensor_type;location;lat;lon;timestamp;temperature;humidity
39621;DHT22;25309;48.686;9.170;2023-03-24T00:01:43;14.60;95.90
39621;DHT22;25309;48.686;9.170;2023-03-24T00:04:10;14.50;95.80
39621;DHT22;25309;48.686;9.170;2023-03-24T00:06:37;14.50;95.90
39621;DHT22;25309;48.686;9.170;2023-03-24T00:09:04;14.40;96.10
39621;DHT22;25309;48.686;9.170;2023-03-24T00:11:33;14.40;96.20
39621;DHT22;25309;48.686;9.170;2023-03-24T00:14:00;14.40;96.40
39621;DHT22;25309;48.686;9.170;2023-03-24T00:16:28;14.30;96.50
39621;DHT22;25309;48.686;9.170;2023-03-24T00:18:55;14.30;96.50
39621;DHT22;25309;48.686;9.170;2023-03-24T00:21:23;14.30;96.70
39621;DHT22;25309;48.686;9.170;2023-03-24T00:23:51;14.30;96.50
39621;DHT22;25309;48.686;9.170;2023-03-24T00:26:21;14.30;96.50
39621;DHT22;25309;48.686;9.170;2023-03-24T00:28:49;14.30;96.20
39621;DHT22;25309;48.686;9.170;2023-03-24T00:31:17;14.30;96.40
39621;DHT22;25309;48.686;9.170;2023-03-24T00:33:45;14.30;96.20
39621;DHT22;25309;48.686;9.170;2023-03-24T00:36:18;14.30;96.30
39621;DHT22;25309;48.686;9.170;2023-03-24T00:38:46;14.20;96.20
39621;DHT22;25309;48.686;9.170;2023-03-24T00:41:14;14.30;96.10
39621;DHT22;25309;48.686;9.170;2023-03-24T00:43:45;14.30;96.10
39621;DHT22;25309;48.686;9.170;2023-03-24T00:46:15;14.30;96.10
39621;DHT22;25309;48.686;9.170;2023-03-24T00:48:56;14.30;96.10
39621;DHT22;25309;48.686;9.170;2023-03-24T00:51:30;14.20;96.20
39621;DHT22;25309;48.686;9.170;2023-03-24T00:53:57;14.20;96.20
39621;DHT22;25309;48.686;9.170;2023-03-24T00:56:25;14.20;96.30
39621;DHT22;25309;48.686;9.170;2023-03-24T00:58:53;14.10;96.30
39621;DHT22;25309;48.686;9.170;2023-03-24T01:01:26;14.10;96.50
39621;DHT22;25309;48.686;9.170;2023-03-24T01:03:55;14.10;96.40
39621;DHT22;25309;48.686;9.170;2023-03-24T01:06:22;14.10;96.50
39621;DHT22;25309;48.686;9.170;2023-03-24T01:08:51;14.00;96.40
39621;DHT22;25309;48.686;9.170;2023-03-24T01:11:20;14.00;96.40
39621;DHT22;25309;48.686;9.170;2023-03-24T01:13:48;14.00;96.50
39621;DHT22;25309;48.686;9.170;2023-03-24T01:16:16;14.00;96.60
39621;DHT22;25309;48.686;9.170;2023-03-24T01:18:45;13.90;96.60
39621;DHT22;25309;48.686;9.170;2023-03-24T01:21:12;13.90;96.70
39621;DHT22;25309;48.686;9.170;2023-03-24T01:23:39;13.90;96.60
39621;DHT22;25309;48.686;9.170;2023-03-24T01:26:09;13.90;96.70
39621;DHT22;25309;48.686;9.170;2023-03-24T01:28:38;13.90;96.60
39621;DHT22;25309;48.686;9.170;2023-03-24T01:31:09;13.90;96.70
39621;DHT22;25309;48.686;9.170;2023-03-24T01:33:37;13.90;96.70
39621;DHT22;25309;48.686;9.170;2023-03-24T01:36:07;13.90;96.70
39621;DHT22;25309;48.686;9.170;2023-03-24T01:38:34;13.90;96.70
39621;DHT22;25309;48.686;9.170;2023-03-24T01:41:02;13.90;96.70
39621;DHT22;25309;48.686;9.170;2023-03-24T01:43:32;13.80;96.70
39621;DHT22;25309;48.686;9.170;2023-03-24T01:46:07;13.90;96.70
39621;DHT22;25309;48.686;9.170;2023-03-24T01:48:41;13.80;96.60
39621;DHT22;25309;48.686;9.170;2023-03-24T01:51:15;13.80;96.70
39621;DHT22;25309;48.686;9.170;2023-03-24T01:53:48;13.80;96.70
39621;DHT22;25309;48.686;9.170;2023-03-24T01:56:16;13.80;96.60
39621;DHT22;25309;48.686;9.170;2023-03-24T01:58:49;13.80;96.50
39621;DHT22;25309;48.686;9.170;2023-03-24T02:01:25;13.80;96.50
39621;DHT22;25309;48.686;9.170;2023-03-24T02:04:07;13.90;96.50
39621;DHT22;25309;48.686;9.170;2023-03-24T02:06:38;13.90;96.50
39621;DHT22;25309;48.686;9.170;2023-03-24T02:09:08;13.90;96.60
39621;DHT22;25309;48.686;9.170;2023-03-24T02:11:36;13.90;96.60
39621;DHT22;25309;48.686;9.170;2023-03-24T02:14:06;13.80;96.60
39621;DHT22;25309;48.686;9.170;2023-03-24T02:16:50;13.90;96.50
39621;DHT22;25309;48.686;9.170;2023-03-24T02:19:58;13.90;96.50
39621;DHT22;25309;48.686;9.170;2023-03-24T02:26:22;14.00;96.20
39621;DHT22;25309;48.686;9.170;2023-03-24T02:29:04;14.00;96.20
39621;DHT22;25309;48.686;9.170;2023-03-24T02:31:47;14.00;96.10
39621;DHT22;25309;48.686;9.170;2023-03-24T02:38:12;14.10;96.00
39621;DHT22;25309;48.686;9.170;2023-03-24T02:40:45;14.10;96.00
39621;DHT22;25309;48.686;9.170;2023-03-24T02:43:20;14.10;96.00
39621;DHT22;25309;48.686;9.170;2023-03-24T02:45:59;14.10;96.00
39621;DHT22;25309;48.686;9.170;2023-03-24T02:48:35;14.20;95.90
39621;DHT22;25309;48.686;9.170;2023-03-24T02:51:07;14.20;95.90
39621;DHT22;25309;48.686;9.170;2023-03-24T02:53:45;14.20;95.90
39621;DHT22;25309;48.686;9.170;2023-03-24T02:56:27;14.20;95.70
39621;DHT22;25309;48.686;9.170;2023-03-24T02:59:05;14.20;95.70
39621;DHT22;25309;48.686;9.170;2023-03-24T03:01:39;14.30;96.00
39621;DHT22;25309;48.686;9.170;2023-03-24T03:04:30;14.30;95.80
39621;DHT22;25309;48.686;9.170;2023-03-24T03:07:04;14.30;95.70
39621;DHT22;25309;48.686;9.170;2023-03-24T03:09:36;14.30;95.70
39621;DHT22;25309;48.686;9.170;2023-03-24T03:12:08;14.30;95.60
39621;DHT22;25309;48.686;9.170;2023-03-24T03:14:38;14.30;95.70
39621;DHT22;25309;48.686;9.170;2023-03-24T03:17:10;14.30;95.80
39621;DHT22;25309;48.686;9.170;2023-03-24T03:19:41;14.30;95.80
39621;DHT22;25309;48.686;9.170;2023-03-24T03:22:13;14.20;95.90
39621;DHT22;25309;48.686;9.170;2023-03-24T03:24:44;14.20;96.10
39621;DHT22;25309;48.686;9.170;2023-03-24T03:27:16;14.20;96.10
39621;DHT22;25309;48.686;9.170;2023-03-24T03:29:49;14.20;96.00
39621;DHT22;25309;48.686;9.170;2023-03-24T03:32:22;14.20;96.00
39621;DHT22;25309;48.686;9.170;2023-03-24T03:34:56;14.20;95.90
39621;DHT22;25309;48.686;9.170;2023-03-24T03:37:31;14.20;96.30
39621;DHT22;25309;48.686;9.170;2023-03-24T03:40:03;14.30;95.90
39621;DHT22;25309;48.686;9.170;2023-03-24T03:42:34;14.30;95.90
39621;DHT22;25309;48.686;9.170;2023-03-24T03:45:02;14.30;95.90
39621;DHT22;25309;48.686;9.170;2023-03-24T03:47:29;14.30;95.90
39621;DHT22;25309;48.686;9.170;2023-03-24T03:49:58;14.30;95.90
39621;DHT22;25309;48.686;9.170;2023-03-24T03:52:25;14.30;95.80
39621;DHT22;25309;48.686;9.170;2023-03-24T03:54:52;14.30;95.80
39621;DHT22;25309;48.686;9.170;2023-03-24T03:57:19;14.30;95.70
39621;DHT22;25309;48.686;9.170;2023-03-24T04:00:14;14.30;95.70
39621;DHT22;25309;48.686;9.170;2023-03-24T04:03:15;14.30;95.70
39621;DHT22;25309;48.686;9.170;2023-03-24T04:05:46;14.30;95.70
39621;DHT22;25309;48.686;9.170;2023-03-24T04:08:26;14.30;95.70
39621;DHT22;25309;48.686;9.170;2023-03-24T04:11:44;14.30;95.70
39621;DHT22;25309;48.686;9.170;2023-03-24T04:14:50;14.30;95.70
39621;DHT22;25309;48.686;9.170;2023-03-24T04:18:09;14.30;95.60
39621;DHT22;25309;48.686;9.170;2023-03-24T04:20:56;14.30;95.60
39621;DHT22;25309;48.686;9.170;2023-03-24T04:23:36;14.30;95.60
39621;DHT22;25309;48.686;9.170;2023-03-24T04:26:14;14.30;95.60
39621;DHT22;25309;48.686;9.170;2023-03-24T04:28:49;14.30;95.60
39621;DHT22;25309;48.686;9.170;2023-03-24T04:31:27;14.30;95.50
39621;DHT22;25309;48.686;9.170;2023-03-24T04:33:58;14.40;95.50
39621;DHT22;25309;48.686;9.170;2023-03-24T04:36:34;14.30;95.40
39621;DHT22;25309;48.686;9.170;2023-03-24T04:39:30;14.40;95.40
39621;DHT22;25309;48.686;9.170;2023-03-24T04:42:07;14.40;95.40
39621;DHT22;25309;48.686;9.170;2023-03-24T04:44:35;14.40;95.50
39621;DHT22;25309;48.686;9.170;2023-03-24T04:47:25;14.40;95.50
39621;DHT22;25309;48.686;9.170;2023-03-24T04:50:21;14.40;95.70
39621;DHT22;25309;48.686;9.170;2023-03-24T04:52:57;14.40;95.70
39621;DHT22;25309;48.686;9.170;2023-03-24T04:55:46;14.30;95.70
39621;DHT22;25309;48.686;9.170;2023-03-24T04:58:29;14.30;95.80
39621;DHT22;25309;48.686;9.170;2023-03-24T05:00:57;14.30;95.90
39621;DHT22;25309;48.686;9.170;2023-03-24T05:03:27;14.40;95.90
39621;DHT22;25309;48.686;9.170;2023-03-24T05:05:56;14.40;95.90
39621;DHT22;25309;48.686;9.170;2023-03-24T05:08:25;14.40;95.90
39621;DHT22;25309;48.686;9.170;2023-03-24T05:10:52;14.40;95.90
39621;DHT22;25309;48.686;9.170;2023-03-24T05:13:19;14.40;95.90
39621;DHT22;25309;48.686;9.170;2023-03-24T05:15:51;14.40;96.00
39621;DHT22;25309;48.686;9.170;2023-03-24T05:18:32;14.50;96.00
39621;DHT22;25309;48.686;9.170;2023-03-24T05:21:01;14.50;96.00
39621;DHT22;25309;48.686;9.170;2023-03-24T05:23:28;14.50;96.40
39621;DHT22;25309;48.686;9.170;2023-03-24T05:25:56;14.50;96.50
39621;DHT22;25309;48.686;9.170;2023-03-24T05:28:24;14.40;96.90
39621;DHT22;25309;48.686;9.170;2023-03-24T05:30:53;14.20;99.90
39621;DHT22;25309;48.686;9.170;2023-03-24T05:33:37;14.10;99.90
39621;DHT22;25309;48.686;9.170;2023-03-24T05:36:06;14.00;99.90
39621;DHT22;25309;48.686;9.170;2023-03-24T05:38:34;13.90;99.90
39621;DHT22;25309;48.686;9.170;2023-03-24T05:41:01;13.80;99.90
39621;DHT22;25309;48.686;9.170;2023-03-24T05:43:34;13.70;99.90
39621;DHT22;25309;48.686;9.170;2023-03-24T05:46:08;13.50;99.90
39621;DHT22;25309;48.686;9.170;2023-03-24T05:48:36;13.50;99.90
39621;DHT22;25309;48.686;9.170;2023-03-24T05:51:12;13.50;99.90
39621;DHT22;25309;48.686;9.170;2023-03-24T05:53:39;13.50;99.90
39621;DHT22;25309;48.686;9.170;2023-03-24T05:56:13;13.50;99.90
39621;DHT22;25309;48.686;9.170;2023-03-24T05:58:59;13.50;99.90
39621;DHT22;25309;48.686;9.170;2023-03-24T06:01:48;13.50;99.90
39621;DHT22;25309;48.686;9.170;2023-03-24T06:04:21;13.50;99.90
39621;DHT22;25309;48.686;9.170;2023-03-24T06:06:52;13.50;99.90
39621;DHT22;25309;48.686;9.170;2023-03-24T06:09:26;13.50;99.90
39621;DHT22;25309;48.686;9.170;2023-03-24T06:11:58;13.50;99.90
39621;DHT22;25309;48.686;9.170;2023-03-24T06:14:25;13.50;99.90
39621;DHT22;25309;48.686;9.170;2023-03-24T06:17:03;13.50;99.90
39621;DHT22;25309;48.686;9.170;2023-03-24T06:19:30;13.50;99.90
39621;DHT22;25309;48.686;9.170;2023-03-24T06:22:33;13.40;99.90
39621;DHT22;25309;48.686;9.170;2023-03-24T06:25:01;13.40;99.90
39621;DHT22;25309;48.686;9.170;2023-03-24T06:27:30;13.30;99.90
39621;DHT22;25309;48.686;9.170;2023-03-24T06:29:58;13.30;99.90
39621;DHT22;25309;48.686;9.170;2023-03-24T06:32:26;13.20;99.90
39621;DHT22;25309;48.686;9.170;2023-03-24T06:34:54;13.30;99.90
39621;DHT22;25309;48.686;9.170;2023-03-24T06:37:41;13.20;99.90
39621;DHT22;25309;48.686;9.170;2023-03-24T06:40:13;13.20;99.90
39621;DHT22;25309;48.686;9.170;2023-03-24T06:42:48;13.20;99.90
39621;DHT22;25309;48.686;9.170;2023-03-24T06:45:15;13.20;99.90
39621;DHT22;25309;48.686;9.170;2023-03-24T06:47:45;13.10;99.90
39621;DHT22;25309;48.686;9.170;2023-03-24T06:50:12;13.20;99.90
39621;DHT22;25309;48.686;9.170;2023-03-24T06:52:40;13.20;99.90
39621;DHT22;25309;48.686;9.170;2023-03-24T06:55:10;13.20;99.90
39621;DHT22;25309;48.686;9.170;2023-03-24T06:57:37;13.20;99.90
39621;DHT22;25309;48.686;9.170;2023-03-24T07:00:26;13.20;99.90
39621;DHT22;25309;48.686;9.170;2023-03-24T07:03:14;13.30;99.90
39621;DHT22;25309;48.686;9.170;2023-03-24T07:05:54;13.30;99.90
39621;DHT22;25309;48.686;9.170;2023-03-24T07:08:24;13.20;99.90
39621;DHT22;25309;48.686;9.170;2023-03-24T07:11:05;13.20;99.90
39621;DHT22;25309;48.686;9.170;2023-03-24T07:13:32;13.10;99.90
39621;DHT22;25309;48.686;9.170;2023-03-24T07:16:03;12.90;99.90
39621;DHT22;25309;48.686;9.170;2023-03-24T07:18:30;12.70;99.90
39621;DHT22;25309;48.686;9.170;2023-03-24T07:21:01;12.60;99.90
39621;DHT22;25309;48.686;9.170;2023-03-24T07:23:30;12.50;99.90
39621;DHT22;25309;48.686;9.170;2023-03-24T07:26:02;12.40;99.90
39621;DHT22;25309;48.686;9.170;2023-03-24T07:28:48;12.30;99.90
39621;DHT22;25309;48.686;9.170;2023-03-24T07:31:30;12.20;99.90
39621;DHT22;25309;48.686;9.170;2023-03-24T07:34:07;12.00;99.90
39621;DHT22;25309;48.686;9.170;2023-03-24T07:36:36;11.80;99.90
39621;DHT22;25309;48.686;9.170;2023-03-24T07:39:07;11.70;99.90
39621;DHT22;25309;48.686;9.170;2023-03-24T07:41:35;11.60;99.90
39621;DHT22;25309;48.686;9.170;2023-03-24T07:44:09;11.70;99.90
39621;DHT22;25309;48.686;9.170;2023-03-24T07:46:39;11.60;99.90
39621;DHT22;25309;48.686;9.170;2023-03-24T07:49:06;11.60;99.90
39621;DHT22;25309;48.686;9.170;2023-03-24T07:51:49;11.60;99.90
39621;DHT22;25309;48.686;9.170;2023-03-24T07:54:33;11.60;99.90
39621;DHT22;25309;48.686;9.170;2023-03-24T07:57:00;11.50;99.90
39621;DHT22;25309;48.686;9.170;2023-03-24T07:59:27;11.50;99.90
39621;DHT22;25309;48.686;9.170;2023-03-24T08:02:05;11.60;99.90
39621;DHT22;25309;48.686;9.170;2023-03-24T08:04:44;11.60;99.90
39621;DHT22;25309;48.686;9.170;2023-03-24T08:07:28;11.50;99.90
39621;DHT22;25309;48.686;9.170;2023-03-24T08:09:57;11.50;99.90
39621;DHT22;25309;48.686;9.170;2023-03-24T08:12:23;11.50;99.90
39621;DHT22;25309;48.686;9.170;2023-03-24T08:14:51;11.50;99.90
39621;DHT22;25309;48.686;9.170;2023-03-24T08:17:18;11.50;99.90
39621;DHT22;25309;48.686;9.170;2023-03-24T08:19:45;11.50;99.90
39621;DHT22;25309;48.686;9.170;2023-03-24T08:22:27;11.50;99.90
39621;DHT22;25309;48.686;9.170;2023-03-24T08:24:53;11.50;99.90
39621;DHT22;25309;48.686;9.170;2023-03-24T08:27:22;11.50;99.90
39621;DHT22;25309;48.686;9.170;2023-03-24T08:29:49;11.50;99.90
39621;DHT22;25309;48.686;9.170;2023-03-24T08:32:16;11.40;99.90
39621;DHT22;25309;48.686;9.170;2023-03-24T08:34:43;11.50;99.90
39621;DHT22;25309;48.686;9.170;2023-03-24T08:37:10;11.50;99.90
39621;DHT22;25309;48.686;9.170;2023-03-24T08:39:37;11.50;99.90
39621;DHT22;25309;48.686;9.170;2023-03-24T08:42:04;11.60;99.90
39621;DHT22;25309;48.686;9.170;2023-03-24T08:44:32;11.50;99.90
39621;DHT22;25309;48.686;9.170;2023-03-24T08:47:01;11.50;99.90
39621;DHT22;25309;48.686;9.170;2023-03-24T08:49:28;11.40;99.90
39621;DHT22;25309;48.686;9.170;2023-03-24T08:51:55;11.40;99.90
39621;DHT22;25309;48.686;9.170;2023-03-24T08:54:22;11.40;99.90
39621;DHT22;25309;48.686;9.170;2023-03-24T08:56:50;11.40;99.90
39621;DHT22;25309;48.686;9.170;2023-03-24T08:59:17;11.40;99.90
39621;DHT22;25309;48.686;9.170;2023-03-24T09:01:45;11.50;99.90
39621;DHT22;25309;48.686;9.170;2023-03-24T09:04:12;11.60;99.90
39621;DHT22;25309;48.686;9.170;2023-03-24T09:06:39;11.60;99.90
39621;DHT22;25309;48.686;9.170;2023-03-24T09:09:07;11.60;99.90
39621;DHT22;25309;48.686;9.170;2023-03-24T09:11:34;11.60;99.90
39621;DHT22;25309;48.686;9.170;2023-03-24T09:14:04;11.70;99.90
39621;DHT22;25309;48.686;9.170;2023-03-24T09:16:31;11.70;99.90
39621;DHT22;25309;48.686;9.170;2023-03-24T09:18:59;11.70;99.90
39621;DHT22;25309;48.686;9.170;2023-03-24T09:21:27;11.80;99.90
39621;DHT22;25309;48.686;9.170;2023-03-24T09:23:54;11.80;99.90
39621;DHT22;25309;48.686;9.170;2023-03-24T09:26:21;11.90;99.90
39621;DHT22;25309;48.686;9.170;2023-03-24T09:28:48;11.90;99.90
39621;DHT22;25309;48.686;9.170;2023-03-24T09:31:15;12.00;99.90
39621;DHT22;25309;48.686;9.170;2023-03-24T09:33:42;12.10;99.90
39621;DHT22;25309;48.686;9.170;2023-03-24T09:36:11;12.20;99.90
39621;DHT22;25309;48.686;9.170;2023-03-24T09:38:38;12.30;99.90
39621;DHT22;25309;48.686;9.170;2023-03-24T09:41:14;12.40;99.90
39621;DHT22;25309;48.686;9.170;2023-03-24T09:43:45;12.50;99.90
39621;DHT22;25309;48.686;9.170;2023-03-24T09:46:16;12.60;99.90
39621;DHT22;25309;48.686;9.170;2023-03-24T09:48:49;12.70;99.90
39621;DHT22;25309;48.686;9.170;2023-03-24T09:51:21;12.70;99.90
39621;DHT22;25309;48.686;9.170;2023-03-24T09:53:53;12.70;99.90
39621;DHT22;25309;48.686;9.170;2023-03-24T09:56:22;12.80;99.90
39621;DHT22;25309;48.686;9.170;2023-03-24T09:58:58;12.90;99.90
39621;DHT22;25309;48.686;9.170;2023-03-24T10:01:26;12.80;99.90
39621;DHT22;25309;48.686;9.170;2023-03-24T10:03:55;13.10;99.90
39621;DHT22;25309;48.686;9.170;2023-03-24T10:06:25;13.30;99.90
39621;DHT22;25309;48.686;9.170;2023-03-24T10:09:03;13.40;99.90
39621;DHT22;25309;48.686;9.170;2023-03-24T10:11:38;13.50;99.90
39621;DHT22;25309;48.686;9.170;2023-03-24T10:14:20;13.60;99.90
39621;DHT22;25309;48.686;9.170;2023-03-24T10:16:55;13.70;99.90
39621;DHT22;25309;48.686;9.170;2023-03-24T10:19:34;13.70;99.90
39621;DHT22;25309;48.686;9.170;2023-03-24T10:22:12;13.70;99.90
39621;DHT22;25309;48.686;9.170;2023-03-24T10:24:44;13.70;99.90
39621;DHT22;25309;48.686;9.170;2023-03-24T10:27:19;14.00;99.90
39621;DHT22;25309;48.686;9.170;2023-03-24T10:29:51;14.10;99.90
39621;DHT22;25309;48.686;9.170;2023-03-24T10:32:21;14.30;99.90
39621;DHT22;25309;48.686;9.170;2023-03-24T10:34:53;14.40;99.90
39621;DHT22;25309;48.686;9.170;2023-03-24T10:37:23;14.50;99.90
39621;DHT22;25309;48.686;9.170;2023-03-24T10:39:50;14.70;99.90
39621;DHT22;25309;48.686;9.170;2023-03-24T10:42:20;14.80;99.90
39621;DHT22;25309;48.686;9.170;2023-03-24T10:44:50;14.90;99.90
39621;DHT22;25309;48.686;9.170;2023-03-24T10:47:23;14.80;99.90
39621;DHT22;25309;48.686;9.170;2023-03-24T10:49:52;14.70;99.90
39621;DHT22;25309;48.686;9.170;2023-03-24T10:52:20;14.70;99.90
39621;DHT22;25309;48.686;9.170;2023-03-24T10:54:56;14.70;99.90
39621;DHT22;25309;48.686;9.170;2023-03-24T10:57:25;14.80;99.90
39621;DHT22;25309;48.686;9.170;2023-03-24T10:59:55;14.80;99.90
39621;DHT22;25309;48.686;9.170;2023-03-24T11:02:24;14.80;99.90
39621;DHT22;25309;48.686;9.170;2023-03-24T11:04:55;14.80;99.90
39621;DHT22;25309;48.686;9.170;2023-03-24T11:07:24;14.80;99.90
39621;DHT22;25309;48.686;9.170;2023-03-24T11:09:59;14.80;99.90
39621;DHT22;25309;48.686;9.170;2023-03-24T11:12:29;15.00;99.90
39621;DHT22;25309;48.686;9.170;2023-03-24T11:15:14;15.10;99.90
39621;DHT22;25309;48.686;9.170;2023-03-24T11:17:52;15.20;99.90
39621;DHT22;25309;48.686;9.170;2023-03-24T11:20:24;15.60;99.90
39621;DHT22;25309;48.686;9.170;2023-03-24T11:23:00;15.80;99.90
39621;DHT22;25309;48.686;9.170;2023-03-24T11:25:30;16.00;99.90
39621;DHT22;25309;48.686;9.170;2023-03-24T11:28:15;16.10;99.90
39621;DHT22;25309;48.686;9.170;2023-03-24T11:30:47;16.20;99.90
39621;DHT22;25309;48.686;9.170;2023-03-24T11:33:19;16.30;99.90
39621;DHT22;25309;48.686;9.170;2023-03-24T11:36:13;16.30;99.90
39621;DHT22;25309;48.686;9.170;2023-03-24T11:39:03;16.30;99.90
39621;DHT22;25309;48.686;9.170;2023-03-24T11:41:41;16.40;99.90
39621;DHT22;25309;48.686;9.170;2023-03-24T11:44:19;16.40;99.90
39621;DHT22;25309;48.686;9.170;2023-03-24T11:46:49;16.30;99.90
39621;DHT22;25309;48.686;9.170;2023-03-24T11:49:20;16.20;99.90
39621;DHT22;25309;48.686;9.170;2023-03-24T11:51:51;16.10;99.90
39621;DHT22;25309;48.686;9.170;2023-03-24T11:54:22;16.00;99.90
39621;DHT22;25309;48.686;9.170;2023-03-24T11:56:52;15.90;99.90
39621;DHT22;25309;48.686;9.170;2023-03-24T11:59:27;15.80;99.90
39621;DHT22;25309;48.686;9.170;2023-03-24T12:02:03;15.70;99.90
39621;DHT22;25309;48.686;9.170;2023-03-24T12:04:47;15.70;99.90
39621;DHT22;25309;48.686;9.170;2023-03-24T12:07:46;15.70;99.90
39621;DHT22;25309;48.686;9.170;2023-03-24T12:10:27;15.70;99.90
39621;DHT22;25309;48.686;9.170;2023-03-24T12:13:04;15.70;99.90
39621;DHT22;25309;48.686;9.170;2023-03-24T12:15:50;15.60;99.90
39621;DHT22;25309;48.686;9.170;2023-03-24T12:18:35;15.50;99.90
39621;DHT22;25309;48.686;9.170;2023-03-24T12:21:11;15.40;99.90
39621;DHT22;25309;48.686;9.170;2023-03-24T12:23:46;15.30;99.90
39621;DHT22;25309;48.686;9.170;2023-03-24T12:26:18;15.30;99.90
39621;DHT22;25309;48.686;9.170;2023-03-24T12:29:02;15.20;99.90
39621;DHT22;25309;48.686;9.170;2023-03-24T12:31:48;15.20;99.90
39621;DHT22;25309;48.686;9.170;2023-03-24T12:34:33;15.20;99.90
39621;DHT22;25309;48.686;9.170;2023-03-24T12:37:08;15.20;99.90
39621;DHT22;25309;48.686;9.170;2023-03-24T12:39:43;15.10;99.90
39621;DHT22;25309;48.686;9.170;2023-03-24T12:42:15;15.10;99.90
39621;DHT22;25309;48.686;9.170;2023-03-24T12:45:20;15.20;99.90
39621;DHT22;25309;48.686;9.170;2023-03-24T12:48:05;15.20;99.90
39621;DHT22;25309;48.686;9.170;2023-03-24T12:50:45;15.10;99.90
39621;DHT22;25309;48.686;9.170;2023-03-24T12:53:41;15.10;99.90
39621;DHT22;25309;48.686;9.170;2023-03-24T12:56:15;15.10;99.90
39621;DHT22;25309;48.686;9.170;2023-03-24T12:58:45;15.00;99.90
39621;DHT22;25309;48.686;9.170;2023-03-24T13:01:21;15.00;99.90
39621;DHT22;25309;48.686;9.170;2023-03-24T13:03:54;15.10;99.90
39621;DHT22;25309;48.686;9.170;2023-03-24T13:06:25;15.10;99.90
39621;DHT22;25309;48.686;9.170;2023-03-24T13:09:03;15.10;99.90
39621;DHT22;25309;48.686;9.170;2023-03-24T13:11:40;15.20;99.90
39621;DHT22;25309;48.686;9.170;2023-03-24T13:14:14;15.20;99.90
39621;DHT22;25309;48.686;9.170;2023-03-24T13:16:44;15.20;99.90
39621;DHT22;25309;48.686;9.170;2023-03-24T13:19:18;15.20;99.90
39621;DHT22;25309;48.686;9.170;2023-03-24T13:21:47;15.20;99.90
39621;DHT22;25309;48.686;9.170;2023-03-24T13:24:16;15.10;99.90
39621;DHT22;25309;48.686;9.170;2023-03-24T13:26:51;15.10;99.90
39621;DHT22;25309;48.686;9.170;2023-03-24T13:29:28;15.10;99.90
39621;DHT22;25309;48.686;9.170;2023-03-24T13:32:20;15.00;99.90
39621;DHT22;25309;48.686;9.170;2023-03-24T13:34:54;15.10;99.90
39621;DHT22;25309;48.686;9.170;2023-03-24T13:37:25;15.00;99.90
39621;DHT22;25309;48.686;9.170;2023-03-24T13:39:55;15.00;99.90
39621;DHT22;25309;48.686;9.170;2023-03-24T13:42:30;15.00;99.90
39621;DHT22;25309;48.686;9.170;2023-03-24T13:44:59;14.90;99.90
39621;DHT22;25309;48.686;9.170;2023-03-24T13:47:46;14.90;99.90
39621;DHT22;25309;48.686;9.170;2023-03-24T13:50:15;14.80;99.90
39621;DHT22;25309;48.686;9.170;2023-03-24T13:52:44;14.80;99.90
39621;DHT22;25309;48.686;9.170;2023-03-24T13:55:17;14.80;99.90
39621;DHT22;25309;48.686;9.170;2023-03-24T13:57:53;14.80;99.90
39621;DHT22;25309;48.686;9.170;2023-03-24T14:00:23;14.70;99.90
39621;DHT22;25309;48.686;9.170;2023-03-24T14:02:52;14.60;99.90
39621;DHT22;25309;48.686;9.170;2023-03-24T14:05:40;14.50;99.90
39621;DHT22;25309;48.686;9.170;2023-03-24T14:08:33;14.50;99.90
39621;DHT22;25309;48.686;9.170;2023-03-24T14:13:52;14.50;99.90
39621;DHT22;25309;48.686;9.170;2023-03-24T14:16:42;14.50;99.90
39621;DHT22;25309;48.686;9.170;2023-03-24T14:19:25;14.50;99.90
39621;DHT22;25309;48.686;9.170;2023-03-24T14:22:00;14.50;99.90
39621;DHT22;25309;48.686;9.170;2023-03-24T14:24:29;14.50;99.90
39621;DHT22;25309;48.686;9.170;2023-03-24T14:26:58;14.50;99.90
39621;DHT22;25309;48.686;9.170;2023-03-24T14:29:36;14.40;99.90
39621;DHT22;25309;48.686;9.170;2023-03-24T14:32:05;14.40;99.90
39621;DHT22;25309;48.686;9.170;2023-03-24T14:34:53;14.50;99.90
39621;DHT22;25309;48.686;9.170;2023-03-24T14:37:22;14.50;99.90
39621;DHT22;25309;48.686;9.170;2023-03-24T14:39:50;14.60;99.90
39621;DHT22;25309;48.686;9.170;2023-03-24T14:42:52;14.60;99.90
39621;DHT22;25309;48.686;9.170;2023-03-24T14:45:39;14.40;99.90
39621;DHT22;25309;48.686;9.170;2023-03-24T14:48:23;14.40;99.90
39621;DHT22;25309;48.686;9.170;2023-03-24T14:50:54;14.30;99.90
39621;DHT22;25309;48.686;9.170;2023-03-24T14:53:24;14.30;99.90
39621;DHT22;25309;48.686;9.170;2023-03-24T14:55:52;14.20;99.90
39621;DHT22;25309;48.686;9.170;2023-03-24T14:58:22;14.20;99.90
39621;DHT22;25309;48.686;9.170;2023-03-24T15:00:54;14.20;99.90
39621;DHT22;25309;48.686;9.170;2023-03-24T15:03:37;13.90;99.90
39621;DHT22;25309;48.686;9.170;2023-03-24T15:06:16;13.80;99.90
39621;DHT22;25309;48.686;9.170;2023-03-24T15:08:48;13.70;99.90
39621;DHT22;25309;48.686;9.170;2023-03-24T15:11:18;13.60;99.90
39621;DHT22;25309;48.686;9.170;2023-03-24T15:13:48;13.50;99.90
39621;DHT22;25309;48.686;9.170;2023-03-24T15:16:21;13.50;99.90
39621;DHT22;25309;48.686;9.170;2023-03-24T15:18:51;13.50;99.90
39621;DHT22;25309;48.686;9.170;2023-03-24T15:21:32;13.50;99.90
39621;DHT22;25309;48.686;9.170;2023-03-24T15:24:01;13.50;99.90
39621;DHT22;25309;48.686;9.170;2023-03-24T15:26:30;13.50;99.90
39621;DHT22;25309;48.686;9.170;2023-03-24T15:28:59;13.60;99.90
39621;DHT22;25309;48.686;9.170;2023-03-24T15:31:27;13.70;99.90
39621;DHT22;25309;48.686;9.170;2023-03-24T15:34:06;13.70;99.90
39621;DHT22;25309;48.686;9.170;2023-03-24T15:36:38;13.70;99.90
39621;DHT22;25309;48.686;9.170;2023-03-24T15:39:16;13.60;99.90
39621;DHT22;25309;48.686;9.170;2023-03-24T15:41:45;13.50;99.90
39621;DHT22;25309;48.686;9.170;2023-03-24T15:44:16;13.30;99.90
39621;DHT22;25309;48.686;9.170;2023-03-24T15:46:45;13.10;99.90
39621;DHT22;25309;48.686;9.170;2023-03-24T15:49:21;12.90;99.90
39621;DHT22;25309;48.686;9.170;2023-03-24T15:51:54;12.80;99.90
39621;DHT22;25309;48.686;9.170;2023-03-24T15:54:23;12.70;99.90
39621;DHT22;25309;48.686;9.170;2023-03-24T15:57:12;12.70;99.90
39621;DHT22;25309;48.686;9.170;2023-03-24T15:59:44;12.60;99.90
39621;DHT22;25309;48.686;9.170;2023-03-24T16:02:21;12.50;99.90
39621;DHT22;25309;48.686;9.170;2023-03-24T16:04:53;12.40;99.90
39621;DHT22;25309;48.686;9.170;2023-03-24T16:07:38;12.30;99.90
39621;DHT22;25309;48.686;9.170;2023-03-24T16:10:29;12.30;99.90
39621;DHT22;25309;48.686;9.170;2023-03-24T16:13:12;12.30;99.90
39621;DHT22;25309;48.686;9.170;2023-03-24T16:15:41;12.20;99.90
39621;DHT22;25309;48.686;9.170;2023-03-24T16:18:12;12.20;99.90
39621;DHT22;25309;48.686;9.170;2023-03-24T16:20:40;12.10;99.90
39621;DHT22;25309;48.686;9.170;2023-03-24T16:23:09;12.10;99.90